Time;durP1;ratioP1;P1;durP2;ratioP2;P2;SDS_P1;SDS_P2;PMS_P1;PMS_P2;Temp;Humidity;BMP_temperature;BMP_pressure;BME280_temperature;BME280_humidity;BME280_pressure;Samples;Min_cycle;Max_cycle;Signal;HPM_P1;HPM_P2
2024/02/25 00:00:38;;;;;;;3.23;0.80;;;3.90;99.90;;;;;;5023866;28;20299;-87
2024/02/25 00:03:03;;;;;;;1.77;0.60;;;4.00;99.90;;;;;;5038919;28;20534;-86
2024/02/25 00:05:31;;;;;;;1.70;0.90;;;4.00;99.90;;;;;;5035288;28;20216;-86
2024/02/25 00:07:57;;;;;;;1.43;0.70;;;4.00;99.90;;;;;;5022846;28;20230;-86
2024/02/25 00:10:23;;;;;;;1.90;0.63;;;4.00;99.90;;;;;;5026998;28;20698;-87
2024/02/25 00:12:49;;;;;;;2.30;0.97;;;4.00;99.90;;;;;;5033198;28;20174;-86
2024/02/25 00:15:14;;;;;;;2.17;0.90;;;4.00;99.90;;;;;;5038284;28;20185;-87
2024/02/25 00:17:40;;;;;;;1.17;0.73;;;4.00;99.90;;;;;;5028924;28;20232;-86
2024/02/25 00:20:06;;;;;;;3.27;0.90;;;4.00;99.90;;;;;;5044674;28;20703;-86
2024/02/25 00:22:32;;;;;;;1.43;0.80;;;4.00;99.90;;;;;;5038592;28;20268;-87
2024/02/25 00:24:58;;;;;;;1.73;0.73;;;4.00;99.90;;;;;;5038429;28;20276;-86
2024/02/25 00:27:24;;;;;;;1.30;0.60;;;3.90;99.90;;;;;;5038310;28;20224;-87
2024/02/25 00:29:49;;;;;;;1.43;0.60;;;3.80;99.90;;;;;;5038416;28;20186;-86
2024/02/25 00:32:15;;;;;;;1.30;0.70;;;3.80;99.90;;;;;;5038467;28;20598;-86
2024/02/25 00:34:41;;;;;;;1.23;0.73;;;3.80;99.90;;;;;;5038210;28;20597;-86
2024/02/25 00:37:06;;;;;;;5.63;0.83;;;3.80;99.90;;;;;;5037885;28;20190;-86
2024/02/25 00:39:32;;;;;;;2.20;0.80;;;3.80;99.90;;;;;;5025573;28;20210;-86
2024/02/25 00:42:01;;;;;;;3.03;0.90;;;3.80;99.90;;;;;;5026495;28;20189;-86
2024/02/25 00:44:27;;;;;;;1.10;0.60;;;3.80;99.90;;;;;;5026413;28;20186;-85
2024/02/25 00:46:53;;;;;;;1.63;0.60;;;3.80;99.90;;;;;;5024877;28;20178;-87
2024/02/25 00:49:19;;;;;;;1.20;0.50;;;3.90;99.90;;;;;;5037527;28;20200;-86
2024/02/25 00:51:45;;;;;;;1.23;0.70;;;4.00;99.90;;;;;;5037863;28;20268;-86
2024/02/25 00:54:11;;;;;;;2.63;0.90;;;4.00;99.90;;;;;;5037431;28;20200;-87
2024/02/25 00:56:36;;;;;;;1.97;0.73;;;4.10;99.90;;;;;;5037766;28;20185;-87
2024/02/25 00:59:02;;;;;;;2.07;0.73;;;4.00;99.90;;;;;;5055229;28;20209;-87
2024/02/25 01:01:28;;;;;;;1.27;0.60;;;4.00;99.90;;;;;;5029634;28;20658;-87
2024/02/25 01:03:54;;;;;;;1.57;0.63;;;3.90;99.90;;;;;;5029366;28;20639;-87
2024/02/25 01:06:19;;;;;;;0.90;0.73;;;3.80;99.90;;;;;;5037418;28;20189;-86
2024/02/25 01:08:45;;;;;;;1.87;0.80;;;3.80;99.90;;;;;;5035971;28;20240;-87
2024/02/25 01:11:11;;;;;;;2.33;0.87;;;3.70;99.90;;;;;;5029041;28;20248;-86
2024/02/25 01:13:37;;;;;;;1.83;0.70;;;3.70;99.90;;;;;;5037683;28;20701;-87
2024/02/25 01:16:03;;;;;;;1.67;0.70;;;3.70;99.90;;;;;;5033989;28;20214;-86
2024/02/25 01:18:33;;;;;;;1.97;0.83;;;3.70;99.90;;;;;;5017474;28;20595;-86
2024/02/25 01:20:59;;;;;;;1.70;0.70;;;3.70;99.90;;;;;;5033130;28;20239;-86
2024/02/25 01:23:25;;;;;;;1.47;0.57;;;3.70;99.90;;;;;;5036836;28;20288;-86
2024/02/25 01:25:51;;;;;;;1.70;0.70;;;3.70;99.90;;;;;;5036904;28;20612;-86
2024/02/25 01:28:19;;;;;;;3.03;0.70;;;3.70;99.90;;;;;;5036569;28;20632;-87
2024/02/25 01:30:47;;;;;;;1.33;0.60;;;3.70;99.90;;;;;;5037123;28;20200;-87
2024/02/25 01:33:16;;;;;;;2.70;0.83;;;3.70;99.90;;;;;;5036909;28;20178;-88
2024/02/25 01:35:45;;;;;;;1.60;0.77;;;3.70;99.90;;;;;;5036848;28;20617;-87
2024/02/25 01:38:10;;;;;;;1.17;0.60;;;3.70;99.90;;;;;;5054282;28;20205;-87
2024/02/25 01:40:36;;;;;;;2.63;0.80;;;3.80;99.90;;;;;;5037208;28;20628;-87
2024/02/25 01:43:16;;;;;;;0.73;0.60;;;3.80;99.90;;;;;;5037069;28;20255;-86
2024/02/25 01:45:43;;;;;;;2.73;1.00;;;3.80;99.90;;;;;;5028207;28;20569;-86
2024/02/25 01:48:09;;;;;;;3.37;0.70;;;3.90;99.90;;;;;;5025161;28;20182;-86
2024/02/25 01:50:36;;;;;;;3.27;0.70;;;3.90;99.90;;;;;;5054376;28;20570;-87
2024/02/25 01:53:03;;;;;;;2.30;0.70;;;3.90;99.90;;;;;;5036782;28;20613;-86
2024/02/25 01:55:38;;;;;;;1.20;0.50;;;3.90;99.90;;;;;;5024810;28;20225;-87
2024/02/25 01:58:06;;;;;;;1.10;0.67;;;3.80;99.90;;;;;;5024906;28;20269;-86
2024/02/25 02:00:35;;;;;;;2.30;0.63;;;3.80;99.90;;;;;;5020851;28;20182;-87
2024/02/25 02:03:00;;;;;;;4.80;0.70;;;3.80;99.90;;;;;;5036439;28;20185;-86
2024/02/25 02:05:26;;;;;;;1.43;0.70;;;3.90;99.90;;;;;;5033480;28;20193;-86
2024/02/25 02:07:56;;;;;;;2.77;0.60;;;3.90;99.90;;;;;;5023055;28;20237;-87
2024/02/25 02:10:21;;;;;;;5.03;0.60;;;3.80;99.90;;;;;;5034057;28;20692;-87
2024/02/25 02:12:48;;;;;;;0.83;0.50;;;3.80;99.90;;;;;;5022600;28;20284;-86
2024/02/25 02:15:15;;;;;;;1.53;0.60;;;3.80;99.90;;;;;;5036399;28;20186;-86
2024/02/25 02:17:42;;;;;;;0.77;0.50;;;3.80;99.90;;;;;;5027586;28;20205;-87
2024/02/25 02:20:11;;;;;;;1.03;0.53;;;3.80;99.90;;;;;;5016711;28;20218;-86
2024/02/25 02:22:41;;;;;;;1.73;0.60;;;3.80;99.90;;;;;;5028264;28;20638;-87
2024/02/25 02:25:08;;;;;;;2.83;0.67;;;3.80;99.90;;;;;;5027668;28;20190;-87
2024/02/25 02:27:41;;;;;;;1.53;0.60;;;3.70;99.90;;;;;;5028518;28;20185;-87
2024/02/25 02:30:08;;;;;;;2.03;0.50;;;3.70;99.90;;;;;;5027975;28;20193;-86
2024/02/25 02:32:35;;;;;;;4.40;0.80;;;3.70;99.90;;;;;;5036288;28;20181;-88
2024/02/25 02:35:03;;;;;;;0.83;0.60;;;3.60;99.90;;;;;;5028431;28;20181;-87
2024/02/25 02:37:29;;;;;;;2.70;0.80;;;3.60;99.90;;;;;;5036103;28;20185;-87
2024/02/25 02:39:55;;;;;;;0.73;0.60;;;3.60;99.90;;;;;;5053796;28;20293;-87
2024/02/25 02:42:21;;;;;;;0.67;0.50;;;3.60;99.90;;;;;;5035943;28;20276;-87
2024/02/25 02:44:48;;;;;;;2.10;0.57;;;3.60;99.90;;;;;;5036242;28;20200;-86
2024/02/25 02:47:15;;;;;;;0.97;0.60;;;3.70;99.90;;;;;;5031199;28;20182;-86
2024/02/25 02:49:41;;;;;;;1.40;0.70;;;3.70;99.90;;;;;;5024503;28;20190;-86
2024/02/25 02:52:07;;;;;;;0.83;0.50;;;3.60;99.90;;;;;;5032977;28;20197;-87
2024/02/25 02:54:33;;;;;;;1.17;0.50;;;3.60;99.90;;;;;;5032218;28;20273;-87
2024/02/25 02:56:58;;;;;;;0.73;0.60;;;3.50;99.90;;;;;;5023699;28;20186;-86
2024/02/25 02:59:24;;;;;;;2.17;0.60;;;3.50;99.90;;;;;;5033228;28;20218;-86
2024/02/25 03:01:52;;;;;;;1.60;0.67;;;3.50;99.90;;;;;;5030626;28;20251;-86
2024/02/25 03:04:18;;;;;;;0.83;0.67;;;3.50;99.90;;;;;;5036148;28;20185;-87
2024/02/25 03:06:44;;;;;;;3.10;0.63;;;3.50;99.90;;;;;;5027914;28;20208;-87
2024/02/25 03:09:12;;;;;;;1.27;0.70;;;3.40;99.90;;;;;;5023863;28;20744;-86
2024/02/25 03:11:39;;;;;;;2.77;0.50;;;3.50;99.90;;;;;;5032627;28;20240;-87
2024/02/25 03:14:05;;;;;;;1.13;0.70;;;3.50;99.90;;;;;;5032607;28;20190;-87
2024/02/25 03:16:30;;;;;;;0.90;0.40;;;3.50;99.90;;;;;;5013980;28;20255;-87
2024/02/25 03:18:57;;;;;;;1.83;0.60;;;3.50;99.90;;;;;;5032386;28;20218;-87
2024/02/25 03:21:23;;;;;;;1.97;0.97;;;3.50;99.90;;;;;;5033576;28;20201;-88
2024/02/25 03:23:48;;;;;;;1.00;0.80;;;3.50;99.90;;;;;;5032422;28;20190;-86
2024/02/25 03:26:16;;;;;;;1.23;0.67;;;3.50;99.90;;;;;;5022869;28;20183;-86
2024/02/25 03:28:42;;;;;;;2.40;0.97;;;3.50;99.90;;;;;;5012770;28;20191;-87
2024/02/25 03:31:08;;;;;;;3.83;0.60;;;3.50;99.90;;;;;;5021251;28;20183;-87
2024/02/25 03:33:34;;;;;;;1.80;0.40;;;3.50;99.90;;;;;;5036605;28;20190;-87
2024/02/25 03:36:00;;;;;;;0.90;0.53;;;3.50;99.90;;;;;;5028953;28;20182;-87
2024/02/25 03:38:26;;;;;;;2.37;0.60;;;3.50;99.90;;;;;;5024246;28;20211;-85
2024/02/25 03:40:52;;;;;;;1.97;0.87;;;3.50;99.90;;;;;;5022520;28;20222;-87
2024/02/25 03:43:19;;;;;;;0.83;0.50;;;3.50;99.90;;;;;;5019562;28;20682;-86
2024/02/25 03:45:44;;;;;;;2.73;0.70;;;3.50;99.90;;;;;;5034797;28;20187;-87
2024/02/25 03:48:10;;;;;;;1.27;0.63;;;3.40;99.90;;;;;;5024924;28;20324;-88
2024/02/25 03:50:36;;;;;;;1.13;0.70;;;3.40;99.90;;;;;;5035674;28;20186;-87
2024/02/25 03:53:02;;;;;;;1.50;0.70;;;3.40;99.90;;;;;;5035446;28;20202;-87
2024/02/25 03:55:29;;;;;;;0.97;0.60;;;3.40;99.90;;;;;;5026963;28;20190;-87
2024/02/25 03:57:56;;;;;;;0.90;0.73;;;3.40;99.90;;;;;;5035594;28;20193;-86
2024/02/25 04:00:23;;;;;;;1.10;0.70;;;3.40;99.90;;;;;;5035453;28;20206;-87
2024/02/25 04:02:49;;;;;;;1.17;0.80;;;3.40;99.90;;;;;;5035783;28;20192;-87
2024/02/25 04:05:15;;;;;;;1.43;0.60;;;3.50;99.90;;;;;;5036527;28;20175;-87
2024/02/25 04:07:42;;;;;;;1.37;0.60;;;3.50;99.90;;;;;;5038006;28;20237;-86
2024/02/25 04:10:09;;;;;;;1.47;0.83;;;3.60;99.90;;;;;;5038208;28;20227;-87
2024/02/25 04:12:36;;;;;;;0.97;0.60;;;3.60;99.90;;;;;;5038539;28;20178;-86
2024/02/25 04:15:02;;;;;;;1.17;0.70;;;3.60;99.90;;;;;;5038688;28;20192;-87
2024/02/25 04:17:29;;;;;;;1.20;0.70;;;3.60;99.90;;;;;;5026421;28;20181;-87
2024/02/25 04:19:56;;;;;;;2.67;0.77;;;3.60;99.90;;;;;;5038281;28;20225;-87
2024/02/25 04:22:23;;;;;;;1.83;0.80;;;3.60;99.90;;;;;;5027839;28;20180;-86
2024/02/25 04:24:49;;;;;;;1.83;0.93;;;3.60;99.90;;;;;;5024558;28;20189;-87
2024/02/25 04:27:15;;;;;;;0.77;0.50;;;3.60;99.90;;;;;;5038178;28;20185;-87
2024/02/25 04:29:43;;;;;;;1.40;0.80;;;3.70;99.90;;;;;;5038224;28;20181;-86
2024/02/25 04:32:10;;;;;;;2.60;0.90;;;3.70;99.90;;;;;;5030169;28;20209;-87
2024/02/25 04:34:35;;;;;;;1.63;0.80;;;3.70;99.90;;;;;;5025964;28;20256;-87
2024/02/25 04:37:03;;;;;;;1.70;0.73;;;3.70;99.90;;;;;;5034324;28;20620;-87
2024/02/25 04:39:29;;;;;;;2.97;0.80;;;3.70;99.90;;;;;;5037472;28;20221;-88
2024/02/25 04:41:55;;;;;;;1.70;0.80;;;3.80;99.90;;;;;;5037992;28;20178;-87
2024/02/25 04:44:21;;;;;;;1.83;0.70;;;3.80;99.90;;;;;;5037882;28;20279;-85
2024/02/25 04:46:47;;;;;;;2.67;1.03;;;3.90;99.90;;;;;;5034419;28;20209;-87
2024/02/25 04:49:15;;;;;;;1.60;0.83;;;3.90;99.90;;;;;;5029487;28;20182;-87
2024/02/25 04:51:41;;;;;;;4.77;1.00;;;3.90;99.90;;;;;;5037795;28;20524;-86
2024/02/25 04:54:09;;;;;;;1.10;0.80;;;3.90;99.90;;;;;;5037266;28;20277;-86
2024/02/25 04:56:38;;;;;;;1.20;0.70;;;4.00;99.90;;;;;;5030505;28;20190;-87
2024/02/25 04:59:04;;;;;;;1.23;0.90;;;4.00;99.90;;;;;;5029682;28;20659;-88
2024/02/25 05:01:30;;;;;;;1.47;0.90;;;4.00;99.90;;;;;;5038454;28;20307;-86
2024/02/25 05:03:56;;;;;;;3.80;1.20;;;4.00;99.90;;;;;;5037549;28;20647;-86
2024/02/25 05:06:22;;;;;;;1.57;1.20;;;4.00;99.90;;;;;;5037325;28;20274;-87
2024/02/25 05:08:48;;;;;;;2.53;1.10;;;4.10;99.90;;;;;;5022953;28;20242;-87
2024/02/25 05:11:14;;;;;;;2.73;1.07;;;4.10;99.90;;;;;;5027010;28;20190;-87
2024/02/25 05:13:41;;;;;;;1.80;0.90;;;4.10;99.90;;;;;;5037374;28;20228;-87
2024/02/25 05:16:08;;;;;;;2.63;1.00;;;4.00;99.90;;;;;;5033588;28;20205;-87
2024/02/25 05:18:34;;;;;;;1.90;1.00;;;4.00;99.90;;;;;;5033073;28;20201;-87
2024/02/25 05:21:04;;;;;;;4.17;1.30;;;4.00;99.90;;;;;;5017521;28;20202;-87
2024/02/25 05:23:30;;;;;;;2.20;1.20;;;4.00;99.90;;;;;;5028104;28;20190;-86
2024/02/25 05:25:56;;;;;;;1.70;1.20;;;4.00;99.90;;;;;;5032370;28;20186;-87
2024/02/25 05:28:22;;;;;;;2.93;1.27;;;4.00;99.90;;;;;;5036697;28;20181;-86
2024/02/25 05:30:48;;;;;;;3.03;1.30;;;3.90;99.90;;;;;;5049042;28;20897;-87
2024/02/25 05:33:14;;;;;;;5.07;1.80;;;3.90;99.90;;;;;;5034780;28;20273;-87
2024/02/25 05:35:41;;;;;;;2.17;1.00;;;3.90;99.90;;;;;;5032521;28;20209;-87
2024/02/25 05:38:06;;;;;;;1.87;1.27;;;3.80;99.90;;;;;;5025160;28;20189;-86
2024/02/25 05:40:32;;;;;;;2.30;1.30;;;3.80;99.90;;;;;;5020865;28;20189;-86
2024/02/25 05:42:58;;;;;;;3.60;1.43;;;3.80;99.90;;;;;;5036932;28;20895;-86
2024/02/25 05:45:24;;;;;;;1.80;1.10;;;3.80;99.90;;;;;;5036781;28;20193;-87
2024/02/25 05:47:49;;;;;;;2.50;1.50;;;3.70;99.90;;;;;;5024779;28;20181;-86
2024/02/25 05:50:15;;;;;;;2.37;1.40;;;3.80;99.90;;;;;;5028608;28;20178;-86
2024/02/25 05:52:44;;;;;;;3.63;1.70;;;3.80;99.90;;;;;;5036790;28;20185;-87
2024/02/25 05:55:09;;;;;;;3.13;1.47;;;3.70;99.90;;;;;;5036076;28;20190;-86
2024/02/25 05:57:35;;;;;;;4.17;1.50;;;3.70;99.90;;;;;;5036560;28;20185;-88
2024/02/25 06:00:01;;;;;;;1.83;1.30;;;3.70;99.90;;;;;;5036497;28;20270;-88
2024/02/25 06:02:27;;;;;;;4.30;1.10;;;3.80;99.90;;;;;;5020499;28;20354;-87
2024/02/25 06:04:53;;;;;;;1.87;1.10;;;3.80;99.90;;;;;;5030007;28;20290;-87
2024/02/25 06:07:22;;;;;;;2.10;1.10;;;3.80;99.90;;;;;;5026936;28;20182;-86
2024/02/25 06:09:48;;;;;;;1.70;0.97;;;3.80;99.90;;;;;;5032812;28;20276;-86
2024/02/25 06:12:14;;;;;;;2.47;1.10;;;3.80;99.90;;;;;;5032952;28;20186;-86
2024/02/25 06:14:39;;;;;;;1.53;1.00;;;3.70;99.90;;;;;;5020430;28;20237;-86
2024/02/25 06:17:05;;;;;;;2.53;1.10;;;3.80;99.90;;;;;;5021353;28;20598;-86
2024/02/25 06:19:33;;;;;;;1.67;1.00;;;3.70;99.90;;;;;;5024532;28;20217;-87
2024/02/25 06:22:00;;;;;;;3.07;0.93;;;3.80;99.90;;;;;;5033282;28;20220;-87
2024/02/25 06:24:25;;;;;;;2.37;1.03;;;3.80;99.90;;;;;;5030042;28;20191;-86
2024/02/25 06:26:51;;;;;;;2.30;0.93;;;3.80;99.90;;;;;;5027877;28;20205;-86
2024/02/25 06:29:17;;;;;;;3.97;1.50;;;3.70;99.90;;;;;;5032769;28;20540;-86
2024/02/25 06:31:44;;;;;;;2.57;1.20;;;3.70;99.90;;;;;;5027816;28;20680;-87
2024/02/25 06:34:11;;;;;;;1.57;1.10;;;3.80;99.90;;;;;;5022177;28;20178;-87
2024/02/25 06:36:38;;;;;;;1.70;1.00;;;3.70;99.90;;;;;;5033015;28;20214;-87
2024/02/25 06:39:04;;;;;;;2.87;0.80;;;3.70;99.90;;;;;;5032685;28;20256;-87
2024/02/25 06:41:29;;;;;;;1.50;0.87;;;3.70;99.90;;;;;;5033033;28;20186;-86
2024/02/25 06:43:55;;;;;;;2.17;1.20;;;3.80;99.90;;;;;;5032959;28;20182;-88
2024/02/25 06:46:21;;;;;;;1.03;0.70;;;3.80;99.90;;;;;;5029084;28;20179;-87
2024/02/25 06:48:47;;;;;;;2.70;1.13;;;3.80;99.90;;;;;;5032941;28;20189;-86
2024/02/25 06:51:26;;;;;;;1.93;0.90;;;3.80;99.90;;;;;;5023451;28;20215;-86
2024/02/25 06:53:53;;;;;;;2.20;1.00;;;3.80;99.90;;;;;;5027751;28;20202;-86
2024/02/25 06:56:19;;;;;;;1.17;0.90;;;3.80;99.90;;;;;;5030507;28;20182;-86
2024/02/25 06:58:45;;;;;;;1.73;0.90;;;3.80;99.90;;;;;;5021103;28;20211;-86
2024/02/25 07:01:14;;;;;;;1.63;0.90;;;3.80;99.90;;;;;;5021788;28;20179;-86
2024/02/25 07:03:45;;;;;;;1.43;0.90;;;3.80;99.90;;;;;;5032588;28;20178;-86
2024/02/25 07:06:11;;;;;;;2.10;1.20;;;3.80;99.90;;;;;;5023908;28;20274;-86
2024/02/25 07:08:37;;;;;;;2.13;0.90;;;3.90;99.90;;;;;;5038809;28;20632;-86
2024/02/25 07:11:20;;;;;;;1.97;0.87;;;3.90;99.90;;;;;;5057155;28;20640;-86
2024/02/25 07:13:47;;;;;;;1.40;0.90;;;3.90;99.90;;;;;;5039116;28;20192;-86
2024/02/25 07:16:13;;;;;;;1.10;0.80;;;3.90;99.90;;;;;;5039798;28;20182;-86
2024/02/25 07:18:39;;;;;;;1.77;1.00;;;3.90;99.90;;;;;;5039424;28;20205;-87
2024/02/25 07:21:06;;;;;;;2.90;1.27;;;3.90;99.90;;;;;;5039664;28;20220;-86
2024/02/25 07:23:33;;;;;;;2.23;0.87;;;3.90;99.90;;;;;;5057344;28;20223;-87
2024/02/25 07:25:59;;;;;;;6.03;1.50;;;3.90;99.90;;;;;;5031923;28;20197;-87
2024/02/25 07:28:25;;;;;;;1.37;0.90;;;4.00;99.90;;;;;;5027637;28;20190;-87
2024/02/25 07:30:51;;;;;;;2.27;1.00;;;4.00;99.90;;;;;;5025830;28;20273;-87
2024/02/25 07:33:16;;;;;;;3.27;1.20;;;4.00;99.90;;;;;;5056758;28;20182;-86
2024/02/25 07:35:42;;;;;;;1.63;0.90;;;4.00;99.90;;;;;;5039474;28;20209;-87
2024/02/25 07:38:08;;;;;;;2.47;1.27;;;4.00;99.90;;;;;;5039140;28;20185;-87
2024/02/25 07:40:34;;;;;;;2.20;0.90;;;4.00;99.90;;;;;;5048425;28;20182;-87
2024/02/25 07:42:59;;;;;;;1.50;0.90;;;4.00;99.90;;;;;;5026720;28;20175;-87
2024/02/25 07:45:26;;;;;;;1.43;0.90;;;4.00;99.90;;;;;;5029119;28;20208;-86
2024/02/25 07:47:52;;;;;;;3.03;0.93;;;4.10;99.90;;;;;;5031022;28;20181;-87
2024/02/25 07:50:18;;;;;;;1.30;0.70;;;4.10;99.90;;;;;;5030214;28;20254;-86
2024/02/25 07:52:43;;;;;;;1.53;1.00;;;4.00;99.90;;;;;;5028448;28;20205;-86
2024/02/25 07:55:09;;;;;;;2.30;0.97;;;4.10;99.90;;;;;;5038908;28;20614;-86
2024/02/25 07:57:36;;;;;;;1.43;0.90;;;4.10;99.90;;;;;;5021841;28;20221;-86
2024/02/25 08:00:04;;;;;;;1.73;1.07;;;4.10;99.90;;;;;;5025241;28;20202;-85
2024/02/25 08:02:33;;;;;;;1.37;0.87;;;4.20;99.90;;;;;;5021803;28;20179;-85
2024/02/25 08:05:01;;;;;;;2.77;0.97;;;4.20;99.90;;;;;;5051804;28;20214;-87
2024/02/25 08:07:27;;;;;;;1.47;1.00;;;4.20;99.90;;;;;;5038191;28;20181;-87
2024/02/25 08:09:53;;;;;;;1.93;1.10;;;4.30;99.90;;;;;;5026589;28;20233;-87
2024/02/25 08:12:19;;;;;;;2.50;0.80;;;4.30;99.90;;;;;;5026908;28;20533;-87
2024/02/25 08:14:44;;;;;;;1.70;0.97;;;4.30;99.90;;;;;;5031548;28;20269;-87
2024/02/25 08:17:12;;;;;;;1.27;0.87;;;4.30;99.90;;;;;;5030435;28;20224;-87
2024/02/25 08:19:39;;;;;;;1.20;0.90;;;4.40;99.90;;;;;;5026758;28;20215;-87
2024/02/25 08:22:05;;;;;;;3.43;1.20;;;4.40;99.90;;;;;;5033608;28;20178;-87
2024/02/25 08:24:30;;;;;;;1.87;0.90;;;4.40;99.90;;;;;;5034719;28;20182;-87
2024/02/25 08:26:56;;;;;;;1.73;0.97;;;4.40;99.90;;;;;;5035151;28;20179;-87
2024/02/25 08:29:22;;;;;;;2.37;1.07;;;4.50;99.90;;;;;;5027113;28;20264;-86
2024/02/25 08:31:49;;;;;;;2.33;1.10;;;4.50;99.90;;;;;;5017809;28;20179;-86
2024/02/25 08:34:16;;;;;;;1.40;0.93;;;4.60;99.90;;;;;;5021047;28;20171;-86
2024/02/25 08:36:42;;;;;;;2.10;0.90;;;4.60;99.90;;;;;;5022583;28;20224;-86
2024/02/25 08:39:08;;;;;;;1.80;1.07;;;4.70;99.90;;;;;;5034366;28;20206;-86
2024/02/25 08:41:34;;;;;;;2.57;1.00;;;4.80;99.90;;;;;;5035803;28;20676;-86
2024/02/25 08:44:00;;;;;;;4.70;2.20;;;4.80;99.90;;;;;;5033486;28;20178;-86
2024/02/25 08:46:26;;;;;;;3.17;1.60;;;4.90;99.90;;;;;;5029768;28;20191;-86
2024/02/25 08:48:51;;;;;;;1.77;1.07;;;5.00;99.90;;;;;;5028064;28;20183;-86
2024/02/25 08:51:17;;;;;;;1.97;0.90;;;5.00;99.90;;;;;;5026189;28;20194;-86
2024/02/25 08:53:43;;;;;;;1.33;0.90;;;5.10;99.90;;;;;;5020937;28;20510;-87
2024/02/25 08:56:08;;;;;;;0.87;0.60;;;5.20;99.90;;;;;;5014440;28;20262;-87
2024/02/25 08:58:37;;;;;;;1.70;0.70;;;5.30;99.90;;;;;;5014419;28;20231;-85
2024/02/25 09:01:03;;;;;;;1.43;0.60;;;5.40;99.90;;;;;;5013912;28;20195;-86
2024/02/25 09:03:28;;;;;;;1.33;0.90;;;5.40;99.90;;;;;;5013515;28;20182;-86
2024/02/25 09:05:55;;;;;;;0.87;0.63;;;5.50;99.90;;;;;;5020294;28;20186;-86
2024/02/25 09:08:22;;;;;;;1.37;0.60;;;5.60;99.90;;;;;;5017353;28;20797;-87
2024/02/25 09:10:48;;;;;;;2.77;1.07;;;5.60;99.90;;;;;;5033871;28;20317;-87
2024/02/25 09:13:14;;;;;;;2.17;0.67;;;5.70;99.90;;;;;;5035147;28;20657;-87
2024/02/25 09:15:39;;;;;;;1.50;0.80;;;5.80;99.90;;;;;;5033810;28;20182;-88
2024/02/25 09:18:06;;;;;;;0.93;0.80;;;5.90;99.90;;;;;;5022358;28;20178;-87
2024/02/25 09:20:33;;;;;;;2.30;0.80;;;5.90;99.90;;;;;;5033436;28;20309;-86
2024/02/25 09:23:01;;;;;;;2.23;0.90;;;5.90;99.90;;;;;;5034988;28;20181;-86
2024/02/25 09:25:33;;;;;;;2.20;0.73;;;5.90;99.90;;;;;;5034473;28;20179;-87
2024/02/25 09:28:03;;;;;;;1.40;0.80;;;5.90;99.90;;;;;;5033689;28;20283;-87
2024/02/25 09:30:30;;;;;;;1.00;0.83;;;5.90;99.90;;;;;;5032869;28;20210;-87
2024/02/25 09:32:59;;;;;;;1.40;0.80;;;6.00;99.90;;;;;;5033655;28;20198;-87
2024/02/25 09:35:25;;;;;;;1.20;0.60;;;6.00;99.90;;;;;;5019344;28;20199;-87
2024/02/25 09:37:52;;;;;;;2.57;0.90;;;6.00;99.90;;;;;;5017422;28;20179;-86
2024/02/25 09:40:17;;;;;;;1.57;0.70;;;6.00;99.90;;;;;;5015588;28;20207;-86
2024/02/25 09:42:45;;;;;;;0.70;0.60;;;6.10;99.90;;;;;;5022244;28;20515;-87
2024/02/25 09:45:33;;;;;;;2.33;0.70;;;6.10;99.90;;;;;;5015959;28;20194;-86
2024/02/25 09:48:00;;;;;;;2.10;0.80;;;6.20;99.90;;;;;;5014768;28;20211;-88
2024/02/25 09:50:27;;;;;;;2.40;0.70;;;6.30;99.90;;;;;;5019141;28;20617;-87
2024/02/25 09:52:55;;;;;;;1.73;0.60;;;6.30;99.90;;;;;;5017181;28;20194;-87
2024/02/25 09:55:20;;;;;;;1.30;0.70;;;6.40;99.90;;;;;;5017167;28;20186;-86
2024/02/25 09:57:50;;;;;;;2.33;0.87;;;6.50;99.90;;;;;;5017131;28;20171;-86
2024/02/25 10:00:16;;;;;;;0.93;0.70;;;6.50;99.90;;;;;;5018689;28;20551;-86
2024/02/25 10:02:45;;;;;;;1.53;0.63;;;6.50;99.90;;;;;;5017624;28;21215;-87
2024/02/25 10:05:17;;;;;;;1.73;0.67;;;6.50;99.90;;;;;;5015205;28;20172;-86
2024/02/25 10:07:43;;;;;;;1.63;0.60;;;6.50;99.90;;;;;;5022327;28;20191;-86
2024/02/25 10:10:12;;;;;;;0.60;0.50;;;6.50;99.90;;;;;;5020424;28;20189;-86
2024/02/25 10:12:43;;;;;;;1.63;0.70;;;6.50;99.90;;;;;;5018904;28;20672;-87
2024/02/25 10:15:10;;;;;;;0.70;0.60;;;6.40;99.90;;;;;;5017373;28;20525;-87
2024/02/25 10:17:36;;;;;;;2.07;0.90;;;6.50;99.90;;;;;;5017455;28;20511;-87
2024/02/25 10:20:06;;;;;;;1.03;0.60;;;6.50;99.90;;;;;;5016311;28;20241;-87
2024/02/25 10:22:31;;;;;;;1.83;0.73;;;6.50;99.90;;;;;;5017465;28;20167;-86
2024/02/25 10:25:05;;;;;;;1.40;1.00;;;6.50;99.90;;;;;;5015425;28;20197;-86
2024/02/25 10:27:32;;;;;;;1.00;0.70;;;6.60;99.90;;;;;;5017880;28;20257;-86
2024/02/25 10:29:59;;;;;;;1.20;0.70;;;6.50;99.90;;;;;;5019126;28;20178;-86
2024/02/25 10:32:29;;;;;;;1.20;0.70;;;6.50;99.90;;;;;;5026468;28;20185;-87
2024/02/25 10:35:00;;;;;;;2.93;0.70;;;6.70;99.90;;;;;;5053959;28;20170;-86
2024/02/25 10:37:30;;;;;;;1.37;0.60;;;6.70;99.90;;;;;;5036010;28;20569;-86
2024/02/25 10:39:58;;;;;;;1.70;0.63;;;6.80;99.90;;;;;;5053601;28;20205;-87
2024/02/25 10:42:28;;;;;;;1.07;0.60;;;6.80;99.90;;;;;;5030219;28;20712;-86
2024/02/25 10:44:56;;;;;;;1.63;0.80;;;6.80;99.90;;;;;;5040389;28;20620;-86
2024/02/25 10:47:25;;;;;;;2.67;0.90;;;6.80;99.90;;;;;;5035739;28;20182;-86
2024/02/25 10:49:53;;;;;;;1.07;0.63;;;6.70;99.90;;;;;;5038455;28;20178;-89
2024/02/25 10:52:25;;;;;;;1.77;0.80;;;6.70;99.90;;;;;;5037603;28;20270;-85
2024/02/25 10:54:52;;;;;;;1.67;0.67;;;6.70;99.90;;;;;;5019362;28;20191;-90
2024/02/25 10:57:18;;;;;;;1.73;0.80;;;6.70;99.90;;;;;;5023183;28;20174;-89
2024/02/25 10:59:48;;;;;;;2.77;0.90;;;6.60;99.90;;;;;;5016018;28;20238;-88
2024/02/25 11:02:19;;;;;;;1.37;0.90;;;6.70;99.90;;;;;;5027349;28;20182;-88
2024/02/25 11:04:46;;;;;;;2.97;0.80;;;6.80;99.90;;;;;;5034725;28;20182;-90
2024/02/25 11:07:13;;;;;;;2.20;0.80;;;6.90;99.90;;;;;;5039393;28;20182;-89
2024/02/25 11:09:39;;;;;;;1.70;0.90;;;6.90;99.90;;;;;;5025265;28;20241;-89
2024/02/25 11:12:31;;;;;;;1.03;0.73;;;7.00;99.90;;;;;;5036565;28;20186;-89
2024/02/25 11:15:06;;;;;;;0.87;0.80;;;7.20;99.90;;;;;;5025939;28;20201;-89
2024/02/25 11:17:47;;;;;;;1.00;0.70;;;7.30;99.90;;;;;;5036525;28;20182;-90
2024/02/25 11:20:22;;;;;;;0.87;0.60;;;7.20;99.90;;;;;;5024716;28;20207;-88
2024/02/25 11:22:51;;;;;;;1.00;0.70;;;7.30;99.90;;;;;;5023885;28;20171;-87
2024/02/25 11:25:26;;;;;;;1.13;0.80;;;7.30;99.90;;;;;;5021974;28;20207;-89
2024/02/25 11:27:56;;;;;;;5.27;1.27;;;7.50;99.90;;;;;;5022856;28;20185;-91
2024/02/25 11:30:22;;;;;;;0.83;0.70;;;7.70;99.90;;;;;;5033150;28;20233;-90
2024/02/25 11:32:48;;;;;;;1.70;0.80;;;7.80;99.90;;;;;;5035324;28;20632;-89
2024/02/25 11:35:15;;;;;;;1.83;0.87;;;8.00;99.90;;;;;;5030813;28;20186;-90
2024/02/25 11:37:44;;;;;;;0.90;0.60;;;8.00;99.90;;;;;;5029773;28;20183;-89
2024/02/25 11:40:11;;;;;;;1.67;0.83;;;8.00;99.90;;;;;;5030926;28;20221;-87
2024/02/25 11:42:38;;;;;;;0.67;0.57;;;8.00;99.90;;;;;;5034559;28;20174;-91
2024/02/25 11:45:04;;;;;;;1.17;0.60;;;8.10;99.90;;;;;;5024937;28;20183;-89
2024/02/25 11:47:30;;;;;;;1.00;0.70;;;8.20;99.90;;;;;;5020649;28;20202;-89
2024/02/25 11:49:58;;;;;;;0.93;0.60;;;8.50;99.90;;;;;;5029723;28;20253;-91
2024/02/25 11:52:24;;;;;;;2.17;0.50;;;8.70;99.90;;;;;;5033167;28;20186;-91
2024/02/25 11:54:50;;;;;;;0.97;0.50;;;8.70;99.90;;;;;;5015706;28;20266;-89
2024/02/25 11:57:17;;;;;;;0.73;0.70;;;8.80;99.90;;;;;;5012618;28;20174;-88
2024/02/25 11:59:44;;;;;;;1.50;0.60;;;8.80;99.90;;;;;;5016438;28;20206;-91
2024/02/25 12:02:10;;;;;;;1.70;0.80;;;8.80;99.90;;;;;;5021934;28;20295;-88
2024/02/25 12:04:36;;;;;;;2.77;0.70;;;8.50;99.90;;;;;;5016860;28;20209;-88
2024/02/25 12:07:04;;;;;;;0.90;0.70;;;8.30;99.90;;;;;;5017261;28;20654;-90
2024/02/25 12:09:30;;;;;;;0.90;0.60;;;8.30;99.90;;;;;;5030005;28;20218;-89
2024/02/25 12:11:56;;;;;;;1.70;0.73;;;8.20;99.90;;;;;;5030149;28;20644;-90
2024/02/25 12:14:22;;;;;;;0.83;0.57;;;8.10;99.90;;;;;;5019918;28;20182;-88
2024/02/25 12:16:50;;;;;;;1.30;0.80;;;8.10;99.90;;;;;;5019191;28;20175;-89
2024/02/25 12:19:17;;;;;;;1.87;0.93;;;8.00;99.90;;;;;;5020383;28;20199;-88
2024/02/25 12:21:50;;;;;;;1.50;0.77;;;8.10;99.90;;;;;;5023444;28;20182;-88
2024/02/25 12:24:17;;;;;;;1.10;0.70;;;8.00;99.90;;;;;;5025554;28;20664;-88
2024/02/25 12:26:55;;;;;;;1.57;1.10;;;8.00;99.90;;;;;;5029267;28;20603;-89
2024/02/25 12:29:25;;;;;;;2.23;0.80;;;8.10;99.90;;;;;;5025226;28;20221;-92
2024/02/25 12:31:51;;;;;;;3.73;1.10;;;8.00;99.90;;;;;;5036369;28;20248;-87
2024/02/25 12:34:17;;;;;;;3.13;1.30;;;8.00;99.90;;;;;;5030229;28;20500;-90
2024/02/25 12:36:44;;;;;;;3.97;1.00;;;8.00;99.90;;;;;;5034896;28;20179;-89
2024/02/25 12:39:15;;;;;;;2.37;1.30;;;8.00;99.90;;;;;;5029559;28;20195;-88
2024/02/25 12:41:41;;;;;;;1.63;0.97;;;8.10;99.90;;;;;;5027840;28;20186;-90
2024/02/25 12:44:07;;;;;;;2.60;1.00;;;8.20;99.90;;;;;;5017174;28;20190;-90
2024/02/25 12:46:37;;;;;;;1.83;0.77;;;8.30;99.90;;;;;;5013966;28;20186;-89
2024/02/25 12:49:14;;;;;;;1.47;0.80;;;8.30;99.90;;;;;;5027908;28;20178;-89
2024/02/25 12:51:41;;;;;;;2.47;1.10;;;8.40;99.90;;;;;;5021066;28;20517;-89
2024/02/25 12:54:06;;;;;;;1.53;1.00;;;8.30;99.90;;;;;;5023099;28;20197;-91
2024/02/25 12:56:41;;;;;;;1.00;0.80;;;8.10;99.90;;;;;;5029678;28;20186;-89